createdAt,value
2022-07-31T00:00:58.970Z,19.80
2022-07-31T00:03:30.117Z,19.77
2022-07-31T00:05:57.077Z,19.70
2022-07-31T00:08:24.638Z,19.64
2022-07-31T00:10:51.422Z,19.71
2022-07-31T00:13:18.135Z,19.83
2022-07-31T00:16:05.585Z,19.81
2022-07-31T00:18:35.783Z,19.76
2022-07-31T00:21:03.600Z,19.76
2022-07-31T00:23:37.742Z,19.69
2022-07-31T00:26:04.538Z,19.78
2022-07-31T00:28:31.438Z,19.72
2022-07-31T00:31:04.352Z,19.67
2022-07-31T00:33:36.438Z,19.59
2022-07-31T00:36:08.010Z,19.53
2022-07-31T00:38:37.984Z,19.51
2022-07-31T00:41:04.822Z,19.50
2022-07-31T00:43:31.611Z,19.50
2022-07-31T00:45:59.431Z,19.46
2022-07-31T00:48:27.589Z,19.44
2022-07-31T00:50:55.575Z,19.40
2022-07-31T00:53:22.441Z,19.41
2022-07-31T00:55:51.656Z,19.39
2022-07-31T00:58:20.101Z,19.37
2022-07-31T01:00:47.555Z,19.39
2022-07-31T01:03:14.664Z,19.39
2022-07-31T01:05:41.926Z,19.31
2022-07-31T01:08:08.887Z,19.29
2022-07-31T01:13:52.138Z,19.25
2022-07-31T01:17:01.458Z,19.09
2022-07-31T01:19:42.084Z,19.05
2022-07-31T01:22:33.506Z,19.10
2022-07-31T01:25:40.950Z,19.12
2022-07-31T01:29:42.734Z,18.96
2022-07-31T01:32:44.474Z,18.94
2022-07-31T01:35:21.971Z,19.01
2022-07-31T01:38:04.349Z,19.06
2022-07-31T01:40:48.869Z,18.98
2022-07-31T01:43:23.426Z,18.92
2022-07-31T01:45:57.882Z,18.90
2022-07-31T01:48:27.525Z,18.85
2022-07-31T01:50:59.537Z,18.88
2022-07-31T01:53:28.439Z,18.80
2022-07-31T01:56:14.278Z,18.75
2022-07-31T01:58:43.129Z,18.71
2022-07-31T02:01:46.214Z,18.71
2022-07-31T02:04:27.276Z,18.71
2022-07-31T02:06:55.779Z,18.89
2022-07-31T02:09:24.059Z,18.87
2022-07-31T02:12:09.829Z,18.77
2022-07-31T02:14:49.977Z,18.83
2022-07-31T02:17:28.613Z,18.71
2022-07-31T02:20:50.709Z,18.83
2022-07-31T02:23:19.723Z,18.79
2022-07-31T02:25:48.041Z,18.85
2022-07-31T02:28:22.292Z,18.81
2022-07-31T02:30:51.781Z,18.74
2022-07-31T02:33:25.517Z,18.74
2022-07-31T02:35:56.348Z,18.67
2022-07-31T02:38:26.587Z,18.64
2022-07-31T02:40:59.079Z,18.61
2022-07-31T02:43:29.111Z,18.53
2022-07-31T02:46:01.266Z,18.62
2022-07-31T02:48:31.578Z,18.61
2022-07-31T02:51:05.085Z,18.51
2022-07-31T02:53:33.547Z,18.54
2022-07-31T02:56:06.423Z,18.48
2022-07-31T02:58:39.463Z,18.48
2022-07-31T03:01:08.449Z,18.48
2022-07-31T03:03:40.587Z,18.45
2022-07-31T03:06:07.639Z,18.40
2022-07-31T03:08:34.885Z,18.38
2022-07-31T03:11:04.798Z,18.30
2022-07-31T03:13:33.584Z,18.25
2022-07-31T03:16:02.356Z,18.26
2022-07-31T03:18:30.974Z,18.25
2022-07-31T03:20:58.256Z,18.23
2022-07-31T03:23:28.353Z,18.28
2022-07-31T03:26:05.601Z,18.29
2022-07-31T03:28:35.422Z,18.26
2022-07-31T03:31:03.008Z,18.23
2022-07-31T03:33:31.110Z,18.26
2022-07-31T03:35:59.195Z,18.30
2022-07-31T03:38:38.849Z,18.29
2022-07-31T03:41:16.105Z,18.23
2022-07-31T03:43:48.066Z,18.17
2022-07-31T03:46:19.983Z,18.13
2022-07-31T03:48:47.915Z,18.11
2022-07-31T03:51:15.731Z,18.16
2022-07-31T03:53:43.668Z,18.11
2022-07-31T03:56:19.966Z,18.12
2022-07-31T03:58:51.588Z,18.11
2022-07-31T04:01:20.781Z,18.11
2022-07-31T04:03:49.206Z,18.06
2022-07-31T04:06:28.509Z,18.13
2022-07-31T04:08:56.294Z,18.10
2022-07-31T04:11:22.921Z,18.06
2022-07-31T04:13:50.041Z,18.06
2022-07-31T04:16:16.925Z,18.04
2022-07-31T04:18:43.739Z,18.02
2022-07-31T04:21:17.878Z,17.98
2022-07-31T04:23:49.610Z,17.98
2022-07-31T04:26:43.627Z,18.03
2022-07-31T04:29:11.780Z,17.99
2022-07-31T04:31:38.499Z,17.96
2022-07-31T04:34:08.341Z,17.97
2022-07-31T04:36:35.370Z,18.00
2022-07-31T04:39:02.229Z,17.93
2022-07-31T04:41:29.943Z,17.97
2022-07-31T04:44:01.441Z,17.91
2022-07-31T04:46:39.469Z,17.96
2022-07-31T04:49:06.802Z,17.94
2022-07-31T04:51:33.809Z,17.93
2022-07-31T04:54:00.737Z,17.94
2022-07-31T04:56:42.271Z,17.97
2022-07-31T04:59:12.691Z,17.87
2022-07-31T05:01:43.579Z,18.15
2022-07-31T05:04:11.347Z,17.98
2022-07-31T05:06:43.303Z,17.96
2022-07-31T05:09:18.419Z,18.04
2022-07-31T05:11:47.317Z,18.02
2022-07-31T05:14:16.729Z,18.02
2022-07-31T05:16:44.846Z,18.16
2022-07-31T05:19:13.824Z,18.20
2022-07-31T05:22:01.757Z,18.25
2022-07-31T05:24:34.124Z,18.18
2022-07-31T05:27:10.768Z,18.16
2022-07-31T05:29:40.432Z,18.18
2022-07-31T05:32:07.232Z,18.23
2022-07-31T05:34:35.449Z,18.31
2022-07-31T05:37:02.745Z,18.34
2022-07-31T05:39:35.407Z,18.34
2022-07-31T05:42:20.882Z,18.34
2022-07-31T05:45:08.149Z,18.34
2022-07-31T05:47:40.447Z,18.36
2022-07-31T05:50:09.722Z,18.48
2022-07-31T05:52:36.914Z,18.44
2022-07-31T05:55:27.923Z,18.51
2022-07-31T05:58:10.022Z,18.53
2022-07-31T06:00:39.926Z,18.59
2022-07-31T06:03:07.319Z,18.63
2022-07-31T06:06:00.340Z,18.71
2022-07-31T06:08:27.125Z,18.67
2022-07-31T06:10:56.538Z,18.73
2022-07-31T06:13:28.064Z,18.87
2022-07-31T06:15:56.130Z,18.85
2022-07-31T06:18:23.274Z,18.88
2022-07-31T06:20:50.579Z,18.94
2022-07-31T06:23:22.999Z,18.95
2022-07-31T06:26:06.214Z,18.98
2022-07-31T06:28:46.412Z,19.03
2022-07-31T06:31:19.581Z,19.20
2022-07-31T06:33:48.422Z,19.24
2022-07-31T06:36:16.958Z,19.41
2022-07-31T06:38:55.529Z,19.42
2022-07-31T06:41:46.804Z,19.46
2022-07-31T06:44:29.369Z,19.50
2022-07-31T06:47:15.945Z,19.50
2022-07-31T06:49:55.361Z,19.58
2022-07-31T06:52:26.085Z,19.74
2022-07-31T06:54:53.720Z,19.94
2022-07-31T06:57:20.641Z,20.05
2022-07-31T06:59:47.625Z,20.23
2022-07-31T07:02:14.487Z,20.27
2022-07-31T07:05:05.164Z,20.44
2022-07-31T07:07:31.986Z,20.64
2022-07-31T07:10:00.679Z,21.00
2022-07-31T07:12:54.142Z,21.30
2022-07-31T07:15:21.939Z,21.59
2022-07-31T07:17:48.750Z,21.55
2022-07-31T07:20:21.208Z,21.58
2022-07-31T07:22:48.115Z,21.50
2022-07-31T07:25:27.527Z,21.35
2022-07-31T07:27:57.105Z,21.38
2022-07-31T07:30:25.129Z,21.24
2022-07-31T07:32:52.143Z,21.34
2022-07-31T07:35:19.013Z,21.45
2022-07-31T07:37:51.630Z,21.54
2022-07-31T07:40:20.924Z,21.74
2022-07-31T07:42:48.868Z,21.60
2022-07-31T07:45:15.622Z,21.77
2022-07-31T07:48:02.819Z,22.18
2022-07-31T07:50:34.543Z,22.43
2022-07-31T07:53:19.764Z,22.71
2022-07-31T07:56:05.485Z,22.64
2022-07-31T07:58:41.028Z,22.50
2022-07-31T08:01:36.992Z,22.27
2022-07-31T08:04:26.142Z,22.17
2022-07-31T08:06:53.185Z,22.08
2022-07-31T08:09:23.219Z,22.12
2022-07-31T08:12:22.265Z,21.69
2022-07-31T08:15:05.575Z,21.68
2022-07-31T08:18:04.461Z,21.51
2022-07-31T08:20:31.455Z,21.57
2022-07-31T08:22:58.126Z,21.66
2022-07-31T08:25:24.994Z,21.79
2022-07-31T08:27:58.996Z,21.95
2022-07-31T08:30:29.215Z,21.80
2022-07-31T08:32:58.377Z,21.78
2022-07-31T08:35:34.878Z,21.81
2022-07-31T08:38:04.577Z,22.14
2022-07-31T08:40:43.115Z,22.51
2022-07-31T08:43:31.052Z,22.95
2022-07-31T08:46:03.070Z,22.48
2022-07-31T08:48:39.910Z,22.29
2022-07-31T08:51:07.468Z,22.22
2022-07-31T08:53:53.311Z,22.06
2022-07-31T08:56:21.736Z,22.25
2022-07-31T08:58:48.447Z,22.43
2022-07-31T09:01:15.763Z,22.51
2022-07-31T09:03:43.138Z,22.61
2022-07-31T09:06:12.463Z,22.92
2022-07-31T09:08:39.381Z,22.93
2022-07-31T09:11:13.905Z,22.95
2022-07-31T09:14:02.362Z,23.52
2022-07-31T09:16:50.543Z,23.63
2022-07-31T09:19:51.674Z,23.52
2022-07-31T09:22:25.033Z,23.39
2022-07-31T09:24:53.261Z,23.34
2022-07-31T09:27:20.504Z,23.39
2022-07-31T09:29:52.821Z,23.57
2022-07-31T09:32:32.471Z,23.83
2022-07-31T09:35:13.251Z,24.14
2022-07-31T09:37:41.690Z,24.40
2022-07-31T09:40:51.553Z,24.72
2022-07-31T09:43:55.612Z,24.72
2022-07-31T09:46:24.436Z,24.71
2022-07-31T09:48:59.907Z,24.83
2022-07-31T09:51:38.089Z,24.99
2022-07-31T09:54:05.366Z,25.19
2022-07-31T09:57:15.259Z,25.17
2022-07-31T09:59:49.376Z,25.28
2022-07-31T10:02:18.681Z,25.27
2022-07-31T10:04:49.447Z,25.23
2022-07-31T10:07:31.457Z,25.23
2022-07-31T10:10:10.267Z,25.53
2022-07-31T10:12:47.898Z,25.80
2022-07-31T10:15:17.495Z,25.64
2022-07-31T10:17:51.377Z,25.78
2022-07-31T10:20:42.737Z,25.44
2022-07-31T10:23:27.256Z,25.31
2022-07-31T10:25:59.799Z,25.22
2022-07-31T10:28:29.713Z,25.28
2022-07-31T10:30:57.334Z,25.20
2022-07-31T10:33:43.516Z,25.19
2022-07-31T10:36:35.387Z,25.49
2022-07-31T10:39:45.687Z,25.54
2022-07-31T10:42:40.520Z,25.43
2022-07-31T10:45:10.500Z,25.37
2022-07-31T10:48:11.290Z,25.53
2022-07-31T10:51:13.857Z,25.76
2022-07-31T10:54:02.433Z,26.21
2022-07-31T10:56:49.544Z,26.26
2022-07-31T10:59:35.976Z,26.07
2022-07-31T11:02:34.681Z,25.84
2022-07-31T11:05:30.469Z,25.56
2022-07-31T11:08:10.973Z,25.22
2022-07-31T11:10:54.600Z,25.11
2022-07-31T11:13:58.027Z,24.88
2022-07-31T11:16:55.766Z,24.90
2022-07-31T11:20:00.945Z,25.11
2022-07-31T11:22:30.950Z,25.44
2022-07-31T11:25:00.623Z,25.87
2022-07-31T11:27:34.491Z,25.78
2022-07-31T11:30:11.006Z,25.93
2022-07-31T11:32:39.686Z,26.07
2022-07-31T11:35:06.871Z,26.06
2022-07-31T11:37:45.341Z,26.15
2022-07-31T11:40:22.216Z,26.20
2022-07-31T11:43:10.305Z,26.51
2022-07-31T11:45:50.553Z,26.69
2022-07-31T11:48:19.735Z,26.57
2022-07-31T11:50:48.434Z,26.69
2022-07-31T11:53:15.798Z,26.69
2022-07-31T11:55:47.482Z,26.44
2022-07-31T11:58:15.920Z,26.17
2022-07-31T12:00:50.927Z,26.08
2022-07-31T12:03:20.283Z,25.97
2022-07-31T12:05:49.684Z,25.72
2022-07-31T12:08:16.915Z,25.65
2022-07-31T12:10:43.859Z,25.86
2022-07-31T12:13:16.232Z,26.40
2022-07-31T12:15:58.340Z,26.67
2022-07-31T12:18:28.291Z,26.21
2022-07-31T12:21:03.682Z,26.31
2022-07-31T12:23:42.145Z,26.83
2022-07-31T12:26:12.275Z,27.21
2022-07-31T12:28:39.909Z,27.36
2022-07-31T12:31:06.643Z,26.96
2022-07-31T12:33:41.108Z,26.43
2022-07-31T12:36:17.725Z,26.32
2022-07-31T12:38:48.481Z,26.34
2022-07-31T12:41:16.371Z,26.45
2022-07-31T12:43:43.083Z,26.23
2022-07-31T12:46:39.067Z,26.02
2022-07-31T12:49:06.716Z,26.30
2022-07-31T12:51:45.181Z,26.33
2022-07-31T12:54:17.287Z,26.27
2022-07-31T12:56:45.299Z,26.41
2022-07-31T12:59:12.161Z,26.34
2022-07-31T13:01:39.370Z,26.08
2022-07-31T13:04:07.710Z,25.88
2022-07-31T13:06:36.224Z,26.10
2022-07-31T13:09:03.459Z,26.44
2022-07-31T13:11:46.074Z,26.61
2022-07-31T13:14:18.976Z,26.65
2022-07-31T13:16:47.318Z,26.60
2022-07-31T13:19:15.115Z,26.05
2022-07-31T13:21:48.816Z,26.20
2022-07-31T13:24:17.244Z,26.26
2022-07-31T13:26:45.415Z,26.42
2022-07-31T13:29:13.025Z,26.46
2022-07-31T13:31:40.123Z,26.43
2022-07-31T13:34:07.057Z,26.44
2022-07-31T13:36:38.642Z,26.68
2022-07-31T13:39:09.280Z,26.66
2022-07-31T13:41:38.901Z,26.65
2022-07-31T13:44:07.166Z,26.37
2022-07-31T13:46:34.663Z,26.24
2022-07-31T13:49:02.552Z,26.27
2022-07-31T13:51:29.659Z,26.12
2022-07-31T13:53:56.901Z,26.23
2022-07-31T13:56:39.637Z,26.44
2022-07-31T13:59:11.464Z,26.21
2022-07-31T14:02:02.113Z,26.32
2022-07-31T14:04:28.568Z,26.25
2022-07-31T14:07:00.142Z,26.34
2022-07-31T14:09:28.631Z,26.61
2022-07-31T14:11:56.129Z,26.55
2022-07-31T14:14:23.710Z,26.31
2022-07-31T14:16:51.079Z,26.06
2022-07-31T14:19:17.997Z,25.91
2022-07-31T14:21:56.048Z,25.56
2022-07-31T14:24:27.309Z,25.35
2022-07-31T14:26:54.141Z,24.67
2022-07-31T14:29:21.186Z,24.37
2022-07-31T14:31:48.189Z,24.26
2022-07-31T14:34:14.856Z,23.90
2022-07-31T14:36:41.590Z,23.17
2022-07-31T14:41:43.216Z,22.02
2022-07-31T14:44:10.134Z,21.89
2022-07-31T14:46:37.022Z,21.61
2022-07-31T14:49:04.689Z,21.66
2022-07-31T14:51:31.719Z,21.93
2022-07-31T14:53:59.649Z,22.17
2022-07-31T14:56:45.293Z,22.46
2022-07-31T14:59:13.517Z,22.44
2022-07-31T15:01:40.452Z,22.50
2022-07-31T15:04:07.492Z,22.63
2022-07-31T15:06:39.472Z,22.49
2022-07-31T15:09:21.279Z,22.57
2022-07-31T15:12:00.975Z,22.79
2022-07-31T15:14:30.253Z,22.75
2022-07-31T15:16:57.983Z,23.13
2022-07-31T15:19:24.985Z,23.28
2022-07-31T15:22:10.470Z,23.33
2022-07-31T15:24:49.195Z,23.56
2022-07-31T15:27:22.299Z,23.51
2022-07-31T15:30:05.220Z,23.59
2022-07-31T15:32:38.930Z,23.60
2022-07-31T15:35:09.016Z,23.61
2022-07-31T15:37:38.036Z,23.80
2022-07-31T15:40:07.417Z,23.42
2022-07-31T15:42:41.336Z,23.06
2022-07-31T15:45:29.962Z,23.00
2022-07-31T15:47:57.439Z,22.76
2022-07-31T15:50:28.100Z,22.72
2022-07-31T15:53:03.006Z,22.72
2022-07-31T15:55:33.331Z,22.88
2022-07-31T15:58:00.363Z,22.74
2022-07-31T16:00:30.256Z,22.82
2022-07-31T16:02:59.884Z,22.90
2022-07-31T16:05:36.722Z,22.86
2022-07-31T16:08:34.392Z,23.04
2022-07-31T16:11:00.375Z,23.26
2022-07-31T16:13:31.505Z,23.15
2022-07-31T16:15:59.124Z,23.09
2022-07-31T16:18:25.903Z,23.05
2022-07-31T16:20:53.128Z,22.95
2022-07-31T16:23:20.291Z,22.60
2022-07-31T16:25:47.284Z,22.45
2022-07-31T16:28:15.143Z,22.34
2022-07-31T16:30:47.126Z,22.51
2022-07-31T16:33:15.545Z,22.26
2022-07-31T16:35:47.543Z,22.07
2022-07-31T16:38:17.351Z,22.06
2022-07-31T16:40:44.181Z,21.79
2022-07-31T16:43:49.162Z,21.73
2022-07-31T16:45:58.885Z,21.29
2022-07-31T16:48:26.247Z,21.22
2022-07-31T16:50:59.201Z,21.05
2022-07-31T16:54:14.326Z,20.94
2022-07-31T16:56:41.621Z,20.73
2022-07-31T16:59:11.504Z,20.64
2022-07-31T17:01:57.110Z,20.68
2022-07-31T17:04:34.238Z,20.47
2022-07-31T17:07:03.899Z,20.60
2022-07-31T17:09:33.035Z,20.56
2022-07-31T17:12:00.226Z,20.67
2022-07-31T17:14:28.195Z,20.91
2022-07-31T17:16:56.273Z,20.95
2022-07-31T17:19:41.682Z,20.93
2022-07-31T17:22:16.098Z,21.12
2022-07-31T17:24:50.850Z,21.51
2022-07-31T17:27:20.668Z,21.82
2022-07-31T17:29:47.749Z,21.72
2022-07-31T17:32:17.833Z,21.57
2022-07-31T17:34:46.474Z,21.32
2022-07-31T17:37:13.671Z,21.12
2022-07-31T17:39:40.544Z,20.99
2022-07-31T17:42:09.391Z,21.10
2022-07-31T17:44:36.933Z,21.07
2022-07-31T17:47:09.085Z,20.97
2022-07-31T17:49:36.889Z,21.02
2022-07-31T17:52:03.944Z,21.04
2022-07-31T17:54:33.791Z,21.08
2022-07-31T17:57:01.134Z,21.02
2022-07-31T17:59:29.641Z,21.00
2022-07-31T18:02:01.121Z,21.00
2022-07-31T18:04:32.850Z,21.06
2022-07-31T18:07:01.549Z,20.98
2022-07-31T18:09:28.886Z,20.92
2022-07-31T18:11:56.317Z,20.95
2022-07-31T18:14:24.522Z,20.90
2022-07-31T18:16:52.184Z,21.03
2022-07-31T18:19:23.498Z,21.08
2022-07-31T18:21:51.315Z,20.91
2022-07-31T18:24:19.874Z,20.89
2022-07-31T18:26:47.050Z,20.83
2022-07-31T18:29:13.908Z,20.71
2022-07-31T18:31:40.906Z,20.71
2022-07-31T18:34:08.045Z,20.76
2022-07-31T18:36:35.311Z,20.60
2022-07-31T18:39:03.850Z,20.61
2022-07-31T18:41:31.077Z,20.80
2022-07-31T18:44:04.327Z,20.73
2022-07-31T18:46:35.365Z,20.61
2022-07-31T18:49:02.678Z,20.57
2022-07-31T18:51:29.964Z,20.60
2022-07-31T18:53:57.827Z,20.59
2022-07-31T18:56:25.777Z,20.57
2022-07-31T18:58:53.645Z,20.49
2022-07-31T19:01:21.835Z,20.53
2022-07-31T19:03:51.866Z,20.60
2022-07-31T19:06:19.757Z,20.57
2022-07-31T19:08:49.353Z,20.54
2022-07-31T19:11:16.293Z,20.53
2022-07-31T19:13:42.960Z,20.53
2022-07-31T19:16:09.726Z,20.52
2022-07-31T19:18:40.168Z,20.48
2022-07-31T19:21:19.164Z,20.48
2022-07-31T19:23:50.484Z,20.51
2022-07-31T19:26:17.326Z,20.52
2022-07-31T19:28:44.265Z,20.52
2022-07-31T19:31:13.232Z,20.46
2022-07-31T19:33:40.447Z,20.26
2022-07-31T19:36:07.418Z,20.03
2022-07-31T19:38:38.173Z,19.91
2022-07-31T19:41:08.487Z,19.84
2022-07-31T19:43:35.816Z,19.55
2022-07-31T19:46:11.204Z,19.47
2022-07-31T19:48:43.988Z,19.34
2022-07-31T19:51:12.210Z,19.46
2022-07-31T19:53:42.005Z,19.39
2022-07-31T19:56:09.844Z,19.53
2022-07-31T19:58:41.988Z,19.35
2022-07-31T20:01:23.419Z,19.36
2022-07-31T20:04:01.349Z,19.40
2022-07-31T20:06:38.958Z,19.37
2022-07-31T20:09:08.505Z,19.31
2022-07-31T20:11:37.371Z,19.30
2022-07-31T20:14:07.282Z,19.22
2022-07-31T20:16:34.712Z,19.28
2022-07-31T20:19:01.976Z,19.29
2022-07-31T20:21:31.875Z,19.29
2022-07-31T20:24:04.894Z,19.30
2022-07-31T20:26:36.288Z,19.19
2022-07-31T20:29:04.926Z,19.34
2022-07-31T20:31:32.023Z,19.33
2022-07-31T20:33:58.745Z,19.33
2022-07-31T20:36:26.936Z,19.32
2022-07-31T20:38:54.287Z,19.28
2022-07-31T20:41:21.148Z,19.20
2022-07-31T20:43:47.944Z,19.13
2022-07-31T20:46:16.810Z,19.15
2022-07-31T20:48:45.217Z,19.20
2022-07-31T20:51:19.229Z,19.11
2022-07-31T20:53:50.420Z,19.09
2022-07-31T20:56:17.569Z,18.97
2022-07-31T20:58:50.883Z,19.02
2022-07-31T21:01:20.244Z,18.96
2022-07-31T21:03:47.182Z,18.96
2022-07-31T21:06:14.082Z,19.00
2022-07-31T21:08:41.625Z,18.98
2022-07-31T21:11:08.714Z,18.96
2022-07-31T21:13:36.348Z,18.91
2022-07-31T21:16:05.973Z,18.98
2022-07-31T21:18:39.988Z,19.01
2022-07-31T21:21:09.712Z,19.02
2022-07-31T21:23:36.529Z,19.03
2022-07-31T21:26:03.915Z,19.00
2022-07-31T21:28:31.117Z,18.97
2022-07-31T21:31:00.866Z,19.03
2022-07-31T21:33:28.518Z,18.90
2022-07-31T21:35:55.718Z,18.96
2022-07-31T21:38:22.783Z,18.96
2022-07-31T21:40:50.204Z,18.98
2022-07-31T21:43:22.075Z,18.95
2022-07-31T21:45:57.338Z,18.99
2022-07-31T21:48:28.426Z,18.84
2022-07-31T21:50:55.585Z,18.97
2022-07-31T21:53:24.285Z,18.92
2022-07-31T21:55:51.732Z,18.96
2022-07-31T21:58:19.528Z,19.04
2022-07-31T22:00:47.079Z,18.98
2022-07-31T22:03:14.023Z,19.02
2022-07-31T22:05:59.682Z,19.04
2022-07-31T22:08:26.565Z,19.00
2022-07-31T22:10:53.530Z,19.03
2022-07-31T22:13:20.932Z,19.02
2022-07-31T22:15:58.600Z,19.02
2022-07-31T22:18:34.625Z,18.98
2022-07-31T22:21:06.302Z,19.09
2022-07-31T22:23:34.096Z,18.89
2022-07-31T22:26:01.891Z,18.95
2022-07-31T22:28:29.745Z,18.95
2022-07-31T22:30:59.574Z,18.91
2022-07-31T22:33:27.702Z,18.97
2022-07-31T22:36:00.192Z,19.03
2022-07-31T22:38:31.568Z,19.10
2022-07-31T22:41:00.080Z,19.10
2022-07-31T22:44:13.230Z,19.08
2022-07-31T22:46:15.742Z,19.04
2022-07-31T22:48:45.650Z,19.05
2022-07-31T22:51:14.630Z,19.01
2022-07-31T22:53:49.096Z,19.03
2022-07-31T22:56:17.889Z,19.11
2022-07-31T22:58:45.152Z,19.03
2022-07-31T23:01:12.291Z,19.10
2022-07-31T23:03:39.424Z,19.08
2022-07-31T23:06:31.166Z,19.06
2022-07-31T23:08:53.696Z,19.02
2022-07-31T23:11:23.757Z,19.01
2022-07-31T23:13:54.216Z,18.98
2022-07-31T23:16:21.741Z,19.01
2022-07-31T23:18:51.085Z,19.07
2022-07-31T23:21:21.165Z,19.03
2022-07-31T23:23:48.984Z,19.05
2022-07-31T23:26:20.812Z,18.93
2022-07-31T23:28:49.038Z,18.98
2022-07-31T23:31:16.462Z,18.93
2022-07-31T23:33:43.686Z,19.07
2022-07-31T23:36:11.516Z,19.01
2022-07-31T23:38:38.531Z,18.98
2022-07-31T23:41:05.479Z,18.95
2022-07-31T23:43:32.236Z,19.04
2022-07-31T23:45:59.335Z,18.98
2022-07-31T23:48:29.933Z,19.06
2022-07-31T23:50:57.258Z,18.96
2022-07-31T23:53:24.454Z,19.00
2022-07-31T23:55:51.413Z,19.03
2022-07-31T23:58:18.351Z,19.01
